Time;durP1;ratioP1;P1;durP2;ratioP2;P2;SDS_P1;SDS_P2;PMS_P1;PMS_P2;Temp;Humidity;BMP_temperature;BMP_pressure;BME280_temperature;BME280_humidity;BME280_pressure;Samples;Min_cycle;Max_cycle;Signal;HPM_P1;HPM_P2
2021/12/14 00:01:36;;;;;;;7.28;4.15;;;;;;;0.91;75.31;93780.84;2071544;69;20139;-68
2021/12/14 00:04:07;;;;;;;4.75;3.22;;;;;;;0.98;75.15;93781.00;2068970;69;20149;-67
2021/12/14 00:06:33;;;;;;;6.88;3.70;;;;;;;0.91;75.45;93778.81;2064687;69;20147;-69
2021/12/14 00:09:01;;;;;;;7.28;4.13;;;;;;;0.97;75.64;93779.50;2064841;69;20172;-69
2021/12/14 00:15:02;;;;;;;5.35;2.92;;;;;;;1.23;75.67;93764.31;2064882;69;20715;-69
2021/12/14 00:17:20;;;;;;;4.53;2.88;;;;;;;1.15;76.44;93755.84;2064728;69;20136;-71
2021/12/14 00:19:47;;;;;;;4.90;2.55;;;;;;;1.36;75.42;93755.31;2064807;69;20236;-69
2021/12/14 00:24:55;;;;;;;5.25;3.17;;;;;;;1.05;78.29;93749.16;2064654;69;20206;-68
2021/12/14 00:27:23;;;;;;;7.78;2.40;;;;;;;1.35;76.04;93751.03;2064697;69;20593;-69
2021/12/14 00:29:53;;;;;;;4.45;3.15;;;;;;;1.00;77.10;93752.75;2064245;69;20181;-69
2021/12/14 00:32:22;;;;;;;5.82;3.15;;;;;;;1.24;75.69;93749.94;2064904;69;20183;-69
2021/12/14 00:34:51;;;;;;;4.60;3.13;;;;;;;0.97;77.25;93757.31;2064167;69;20144;-71
2021/12/14 00:37:19;;;;;;;4.63;3.08;;;;;;;1.06;76.56;93764.53;2064011;69;20149;-69
2021/12/14 00:39:45;;;;;;;6.13;3.17;;;;;;;1.16;75.77;93760.13;2061669;69;20153;-72
2021/12/14 00:42:12;;;;;;;4.50;2.45;;;;;;;1.18;75.39;93767.91;2063529;69;20529;-69
2021/12/14 00:44:39;;;;;;;5.55;2.70;;;;;;;1.18;75.78;93765.13;2064656;69;20164;-75
2021/12/14 00:47:05;;;;;;;4.78;2.10;;;;;;;1.37;74.89;93768.66;2064512;69;20145;-74
2021/12/14 00:49:32;;;;;;;2.55;1.70;;;;;;;1.37;77.33;93765.88;2064988;69;20141;-74
2021/12/14 00:51:59;;;;;;;3.00;2.00;;;;;;;1.53;76.52;93767.69;2064469;69;20145;-70
2021/12/14 00:54:25;;;;;;;3.08;2.03;;;;;;;1.48;77.18;93774.06;2064523;69;20149;-74
2021/12/14 00:56:53;;;;;;;2.88;2.03;;;;;;;1.43;77.14;93763.03;2064463;69;20137;-70
2021/12/14 00:59:21;;;;;;;4.68;3.05;;;;;;;0.89;77.52;93763.97;2065114;69;20201;-68
2021/12/14 01:01:57;;;;;;;6.10;3.45;;;;;;;1.02;77.15;93770.38;2061800;69;20145;-74
2021/12/14 01:04:40;;;;;;;4.10;3.00;;;;;;;1.14;75.94;93779.28;2062741;69;20161;-67
2021/12/14 01:07:08;;;;;;;4.72;2.58;;;;;;;1.17;75.72;93769.19;2066757;69;20145;-69
2021/12/14 01:09:37;;;;;;;4.97;2.80;;;;;;;0.92;76.82;93774.78;2067829;69;20164;-68
2021/12/14 01:12:10;;;;;;;3.50;2.70;;;;;;;1.16;76.37;93773.25;2068396;69;20567;-69
2021/12/14 01:15:12;;;;;;;4.28;2.40;;;;;;;1.17;75.63;93783.81;2068470;69;20151;-67
2021/12/14 01:18:00;;;;;;;2.67;1.70;;;;;;;1.33;75.34;93782.09;2068495;69;20246;-68
2021/12/14 01:20:31;;;;;;;2.97;1.83;;;;;;;1.27;75.27;93781.41;2068114;69;20878;-67
2021/12/14 01:23:02;;;;;;;3.70;2.42;;;;;;;0.97;76.33;93795.41;2065078;69;20604;-71
2021/12/14 01:25:36;;;;;;;4.45;2.75;;;;;;;0.96;76.83;93794.66;2067704;69;20152;-67
2021/12/14 01:28:25;;;;;;;4.10;2.55;;;;;;;1.03;76.41;93796.06;2067955;69;20160;-68
2021/12/14 01:31:06;;;;;;;2.25;1.60;;;;;;;1.21;75.54;93803.66;2067843;69;20141;-73
2021/12/14 01:33:33;;;;;;;1.60;1.42;;;;;;;1.23;74.83;93798.34;2068449;69;20225;-72
2021/12/14 01:36:02;;;;;;;2.00;1.20;;;;;;;1.31;77.13;93803.31;2068339;69;20184;-67
2021/12/14 01:41:07;;;;;;;3.53;2.17;;;;;;;1.10;77.05;93806.59;2067838;69;20148;-70
2021/12/14 01:43:44;;;;;;;3.15;2.20;;;;;;;1.10;76.86;93803.03;2068264;69;20621;-71
2021/12/14 01:46:31;;;;;;;4.50;2.47;;;;;;;1.07;76.35;93804.09;2067854;69;20206;-72
2021/12/14 01:49:17;;;;;;;7.38;4.43;;;;;;;1.22;75.49;93802.41;2067714;69;20630;-72
2021/12/14 01:51:59;;;;;;;5.13;3.25;;;;;;;1.22;75.94;93801.66;2068320;69;20140;-75
2021/12/14 01:54:40;;;;;;;4.78;2.80;;;;;;;1.32;76.44;93800.00;2067709;69;20637;-71
2021/12/14 01:57:13;;;;;;;10.65;6.20;;;;;;;0.74;79.37;93803.22;2064181;69;20187;-72
2021/12/14 01:59:43;;;;;;;11.77;6.70;;;;;;;1.01;76.73;93804.19;2067180;69;20188;-73
2021/12/14 02:02:42;;;;;;;23.05;11.10;;;;;;;1.05;76.68;93801.84;2067332;69;20188;-71
2021/12/14 02:05:29;;;;;;;20.60;11.85;;;;;;;1.15;76.00;93799.47;2053733;69;20149;-71
2021/12/14 02:07:58;;;;;;;18.05;10.75;;;;;;;1.14;75.49;93801.47;2054098;69;20161;-76
2021/12/14 02:10:30;;;;;;;9.48;5.70;;;;;;;1.25;75.33;93801.34;2054145;69;20173;-69
2021/12/14 02:12:57;;;;;;;13.15;7.20;;;;;;;1.25;75.31;93797.84;2054147;69;20168;-71
2021/12/14 02:15:28;;;;;;;14.02;8.80;;;;;;;1.23;75.17;93803.13;2054117;69;20166;-71
2021/12/14 02:17:58;;;;;;;9.77;5.93;;;;;;;1.22;75.39;93793.31;2051475;69;20168;-69
2021/12/14 02:20:29;;;;;;;10.40;6.53;;;;;;;0.99;76.50;93792.84;2053923;69;20177;-73
2021/12/14 02:22:57;;;;;;;10.73;6.80;;;;;;;1.16;76.40;93787.09;2054053;69;20165;-75
2021/12/14 02:25:23;;;;;;;9.15;5.45;;;;;;;1.17;76.86;93792.13;2054039;69;20161;-72
2021/12/14 02:27:51;;;;;;;8.88;5.28;;;;;;;1.26;75.33;93785.47;2056936;69;20168;-75
2021/12/14 02:30:23;;;;;;;8.05;4.95;;;;;;;1.21;75.30;93787.03;2054013;69;20150;-75
2021/12/14 02:32:49;;;;;;;13.80;7.75;;;;;;;0.66;77.01;93789.19;2053973;69;20280;-72
2021/12/14 02:35:20;;;;;;;13.25;7.65;;;;;;;0.76;76.56;93797.88;2057488;69;20384;-72
2021/12/14 02:37:54;;;;;;;12.43;7.28;;;;;;;0.80;76.33;93794.84;2057717;69;20613;-69
2021/12/14 02:40:56;;;;;;;9.05;5.82;;;;;;;0.96;76.22;93797.44;2057605;69;20153;-73
2021/12/14 02:43:35;;;;;;;3.85;2.53;;;;;;;1.24;75.17;93793.56;2064474;69;20240;-72
2021/12/14 02:46:13;;;;;;;2.05;1.65;;;;;;;1.29;74.38;93801.06;2064454;69;20203;-71
2021/12/14 02:48:42;;;;;;;1.98;1.40;;;;;;;1.43;76.81;93799.88;2064429;69;20655;-72
2021/12/14 02:51:27;;;;;;;3.28;1.85;;;;;;;1.10;76.82;93797.50;2064949;69;20137;-67
2021/12/14 02:54:01;;;;;;;3.65;2.20;;;;;;;1.08;76.69;93788.97;2064537;69;20181;-71
2021/12/14 02:56:30;;;;;;;3.97;2.25;;;;;;;0.92;76.95;93787.91;2064440;69;20505;-74
2021/12/14 02:59:04;;;;;;;2.75;2.08;;;;;;;1.15;75.76;93788.38;2064426;69;20145;-75
2021/12/14 03:01:30;;;;;;;2.42;1.77;;;;;;;1.06;76.54;93781.19;2064318;69;20149;-74
2021/12/14 03:04:03;;;;;;;3.17;2.03;;;;;;;0.99;76.03;93785.28;2065468;69;20141;-72
2021/12/14 03:06:32;;;;;;;2.50;1.70;;;;;;;1.06;76.15;93797.81;2067652;69;20640;-73
2021/12/14 03:09:18;;;;;;;2.20;1.63;;;;;;;1.04;75.69;93800.34;2067777;69;20598;-71
2021/12/14 03:11:43;;;;;;;4.32;1.65;;;;;;;1.15;75.73;93803.00;2065008;69;20151;-72
2021/12/14 03:14:09;;;;;;;2.58;1.70;;;;;;;1.15;75.29;93813.34;2067742;69;20156;-74
2021/12/14 03:16:38;;;;;;;2.50;1.92;;;;;;;0.85;76.44;93800.31;2068326;69;20567;-70
2021/12/14 03:19:06;;;;;;;2.17;1.70;;;;;;;0.91;77.40;93809.31;2067740;69;20208;-75
2021/12/14 03:21:39;;;;;;;2.15;1.70;;;;;;;1.06;76.19;93795.03;2067646;69;20133;-73
2021/12/14 03:24:13;;;;;;;2.10;1.48;;;;;;;1.16;75.43;93795.44;2067745;69;20175;-74
2021/12/14 03:26:43;;;;;;;1.70;1.20;;;;;;;1.24;75.75;93788.75;2067748;69;20647;-73
2021/12/14 03:29:17;;;;;;;2.47;1.33;;;;;;;1.24;75.29;93793.56;2067799;69;20160;-72
2021/12/14 03:31:47;;;;;;;1.45;1.00;;;;;;;1.30;75.36;93791.47;2068259;69;20640;-73
2021/12/14 03:34:29;;;;;;;1.45;0.95;;;;;;;1.23;76.14;93790.00;2067771;69;20155;-74
2021/12/14 03:37:00;;;;;;;1.00;0.90;;;;;;;1.17;76.83;93794.16;2068279;69;20140;-74
2021/12/14 03:39:37;;;;;;;1.30;1.10;;;;;;;1.09;76.59;93801.56;2068395;69;20228;-74
2021/12/14 03:42:10;;;;;;;1.60;1.08;;;;;;;1.08;75.83;93802.81;2065074;69;20155;-75
2021/12/14 03:44:45;;;;;;;3.17;2.17;;;;;;;0.97;75.69;93804.47;2067714;69;20206;-76
2021/12/14 03:47:18;;;;;;;3.38;2.03;;;;;;;0.94;76.23;93797.19;2067677;69;20225;-75
2021/12/14 03:49:49;;;;;;;1.80;1.48;;;;;;;0.87;77.09;93797.78;2067718;69;20164;-71
2021/12/14 03:52:19;;;;;;;3.08;1.40;;;;;;;0.93;78.16;93804.00;2064808;69;20145;-69
2021/12/14 03:54:46;;;;;;;1.20;1.10;;;;;;;0.96;78.69;93791.88;2067640;69;20618;-73
2021/12/14 03:57:14;;;;;;;1.83;1.25;;;;;;;1.10;77.74;93803.81;2067572;69;20247;-72
2021/12/14 03:59:42;;;;;;;1.70;1.30;;;;;;;1.13;76.29;93799.25;2067628;69;20532;-71
2021/12/14 04:02:11;;;;;;;0.98;0.90;;;;;;;1.13;75.72;93796.47;2067635;69;20259;-74
2021/12/14 04:04:43;;;;;;;;;;;;;;;0.94;77.11;93799.22;2067714;69;20618;-75
2021/12/14 04:07:15;;;;;;;2.92;1.10;;;;;;;1.18;75.94;93801.19;2067555;69;20045;-70
2021/12/14 04:09:46;;;;;;;3.10;1.20;;;;;;;1.18;75.65;93806.72;2067666;69;20706;-69
2021/12/14 04:12:16;;;;;;;1.50;1.13;;;;;;;1.04;76.56;93803.13;2067775;69;20141;-74
2021/12/14 04:14:46;;;;;;;1.60;1.50;;;;;;;1.10;75.65;93808.59;2068849;69;20207;-75
2021/12/14 04:17:13;;;;;;;2.67;1.63;;;;;;;1.09;75.59;93804.31;2068209;69;20614;-74
2021/12/14 04:19:40;;;;;;;3.33;1.80;;;;;;;1.06;75.30;93803.38;2068150;69;20171;-74
2021/12/14 04:22:13;;;;;;;4.60;3.30;;;;;;;0.99;75.49;93795.63;2068054;69;20171;-74
2021/12/14 04:24:40;;;;;;;7.03;4.93;;;;;;;0.96;75.76;93794.66;2065428;69;20145;-75
2021/12/14 04:27:14;;;;;;;7.07;4.90;;;;;;;1.05;75.45;93799.06;2068200;69;20157;-76
2021/12/14 04:29:40;;;;;;;7.10;4.95;;;;;;;0.94;75.78;93794.41;2068206;69;20148;-75
2021/12/14 04:32:09;;;;;;;3.85;3.28;;;;;;;0.90;75.60;93793.19;2068111;69;20162;-75
2021/12/14 04:34:36;;;;;;;3.17;1.98;;;;;;;0.97;75.46;93795.41;2068157;69;20148;-73
2021/12/14 04:37:04;;;;;;;2.55;1.92;;;;;;;0.98;75.43;93797.66;2068055;69;20156;-69
2021/12/14 04:53:15;;;;;;;61.55;22.95;;;;;;;0.81;76.77;93813.72;2068117;69;20252;-75
2021/12/14 04:55:44;;;;;;;123.47;35.38;;;;;;;0.72;76.37;93808.50;2068112;69;20137;-72
2021/12/14 04:58:11;;;;;;;77.93;24.23;;;;;;;0.88;76.88;93809.63;2068104;69;20141;-74
2021/12/14 05:00:45;;;;;;;51.47;16.73;;;;;;;0.97;76.01;93804.47;2067302;69;20152;-72
2021/12/14 05:03:37;;;;;;;60.67;21.30;;;;;;;0.78;76.79;93803.69;2065677;69;20594;-73
2021/12/14 05:06:16;;;;;;;;;;;;;;;0.87;76.57;93802.56;2068814;69;20171;-73
2021/12/14 05:11:15;;;;;;;16.48;5.97;;;;;;;0.92;75.89;93799.75;2068620;69;20542;-73
2021/12/14 05:13:45;;;;;;;13.38;5.25;;;;;;;0.88;76.06;93793.72;2066997;69;20132;-69
2021/12/14 05:16:24;;;;;;;9.88;4.47;;;;;;;0.79;76.08;93796.84;2065376;69;20151;-70
2021/12/14 05:18:56;;;;;;;18.13;6.70;;;;;;;0.80;75.90;93798.34;2065230;69;20132;-68
2021/12/14 05:21:29;;;;;;;15.40;7.05;;;;;;;0.82;75.34;93801.34;2065181;69;20234;-69
2021/12/14 05:23:57;;;;;;;13.90;6.32;;;;;;;0.63;76.41;93795.00;2065090;69;20588;-73
2021/12/14 05:26:23;;;;;;;17.15;7.40;;;;;;;0.64;76.05;93797.28;2068542;69;20140;-73
2021/12/14 05:28:49;;;;;;;21.25;8.63;;;;;;;0.53;75.69;93794.59;2065257;69;20156;-73
2021/12/14 05:31:21;;;;;;;12.15;6.43;;;;;;;0.72;75.13;93800.19;2066118;69;20141;-73
2021/12/14 05:33:48;;;;;;;8.65;4.40;;;;;;;0.79;75.32;93796.13;2068652;69;20144;-74
2021/12/14 05:36:30;;;;;;;6.70;3.78;;;;;;;0.85;74.78;93802.34;2068471;69;20148;-73
2021/12/14 05:39:03;;;;;;;5.82;2.95;;;;;;;0.69;75.37;93810.31;2068550;69;20137;-69
2021/12/14 05:44:56;;;;;;;12.10;6.38;;;;;;;0.54;74.82;93812.72;2065234;69;20634;-70
2021/12/14 05:47:25;;;;;;;9.50;5.30;;;;;;;0.52;75.18;93814.53;2065202;69;20156;-73
2021/12/14 05:50:03;;;;;;;7.93;4.15;;;;;;;0.49;75.35;93814.28;2065190;69;20505;-71
2021/12/14 05:52:30;;;;;;;10.80;5.38;;;;;;;0.37;76.03;93820.47;2065192;69;20634;-74
2021/12/14 05:55:07;;;;;;;9.20;4.90;;;;;;;0.37;76.07;93820.47;2065159;69;20623;-73
2021/12/14 05:57:33;;;;;;;8.20;4.32;;;;;;;0.40;75.48;93819.41;2065137;69;20145;-73
2021/12/14 05:59:58;;;;;;;8.07;3.92;;;;;;;0.46;75.37;93815.34;2065138;69;20148;-72
2021/12/14 06:02:25;;;;;;;5.65;3.20;;;;;;;0.57;75.68;93810.94;2065130;69;20164;-76
2021/12/14 06:04:54;;;;;;;5.65;2.97;;;;;;;0.63;74.86;93811.63;2062134;69;20155;-73
2021/12/14 06:07:21;;;;;;;5.85;3.28;;;;;;;0.69;74.68;93813.09;2058347;69;20598;-73
2021/12/14 06:09:50;;;;;;;4.90;3.05;;;;;;;0.65;74.23;93798.03;2058587;69;20156;-69
2021/12/14 06:12:39;;;;;;;4.47;2.60;;;;;;;0.50;74.90;93806.72;2061286;69;20153;-74
2021/12/14 06:15:16;;;;;;;16.13;5.95;;;;;;;0.49;75.41;93794.88;2061296;69;20153;-73
2021/12/14 06:17:42;;;;;;;22.27;6.53;;;;;;;0.49;75.73;93802.44;2061891;69;20207;-74
2021/12/14 06:20:41;;;;;;;11.63;4.75;;;;;;;0.52;75.47;93808.97;2059892;69;20162;-76
2021/12/14 06:23:08;;;;;;;11.85;4.75;;;;;;;0.52;75.32;93809.72;2061269;69;20159;-76
2021/12/14 06:25:53;;;;;;;11.63;4.43;;;;;;;0.52;74.53;93806.22;2061837;69;20210;-74
2021/12/14 06:28:24;;;;;;;10.75;4.63;;;;;;;0.52;75.54;93798.66;2061199;69;20137;-73
2021/12/14 06:30:50;;;;;;;12.27;4.70;;;;;;;0.42;75.07;93803.03;2061998;69;20149;-72
2021/12/14 06:33:16;;;;;;;13.65;5.43;;;;;;;0.32;76.06;93799.84;2061211;69;20207;-74
2021/12/14 06:35:47;;;;;;;22.05;10.48;;;;;;;0.48;75.59;93798.94;2061106;69;20136;-75
2021/12/14 06:41:09;;;;;;;23.17;11.35;;;;;;;0.47;75.79;93793.91;2061174;69;20157;-74
2021/12/14 06:43:52;;;;;;;29.20;12.52;;;;;;;0.62;75.21;93787.97;2061200;69;20240;-74
2021/12/14 06:46:31;;;;;;;23.75;11.60;;;;;;;0.60;75.08;93788.50;2061154;69;20145;-76
2021/12/14 06:49:00;;;;;;;26.38;11.32;;;;;;;0.41;75.95;93787.66;2061193;69;20252;-75
2021/12/14 06:51:31;;;;;;;24.33;12.38;;;;;;;0.41;76.12;93793.97;2061091;69;20145;-75
2021/12/14 06:54:16;;;;;;;26.40;13.93;;;;;;;0.48;75.20;93796.16;2061166;69;20626;-74
2021/12/14 06:57:04;;;;;;;26.73;15.15;;;;;;;0.49;75.04;93802.44;2061832;69;20226;-74
2021/12/14 06:59:34;;;;;;;22.80;12.65;;;;;;;0.39;76.46;93799.28;2061289;69;20153;-74
2021/12/14 07:02:14;;;;;;;25.48;12.38;;;;;;;0.37;75.88;93801.81;2061201;69;20153;-73
2021/12/14 07:05:17;;;;;;;23.52;12.18;;;;;;;0.50;75.30;93796.41;2060673;69;20243;-68
2021/12/14 07:07:46;;;;;;;18.25;10.77;;;;;;;0.49;76.81;93794.13;2061816;69;20489;-73
2021/12/14 07:10:15;;;;;;;19.92;11.02;;;;;;;0.63;75.33;93795.00;2064434;69;20591;-75
2021/12/14 07:12:41;;;;;;;19.10;9.77;;;;;;;0.62;75.08;93791.47;2061703;69;20168;-72
2021/12/14 07:15:18;;;;;;;11.57;6.68;;;;;;;0.50;76.45;93793.63;2065046;69;20140;-72
2021/12/14 07:17:54;;;;;;;15.77;8.02;;;;;;;0.68;76.18;93794.19;2065039;69;20129;-76
2021/12/14 07:20:22;;;;;;;12.20;7.30;;;;;;;0.72;75.41;93792.63;2065026;69;20157;-74
2021/12/14 07:22:54;;;;;;;11.40;6.45;;;;;;;0.73;75.21;93796.94;2065042;69;20137;-72
2021/12/14 07:25:24;;;;;;;9.20;5.68;;;;;;;0.73;75.33;93799.69;2065163;69;20247;-75
2021/12/14 07:28:08;;;;;;;12.05;7.00;;;;;;;0.55;75.53;93802.38;2064849;69;20169;-71
2021/12/14 07:30:40;;;;;;;15.88;8.65;;;;;;;0.64;75.01;93807.59;2064639;69;20141;-76
2021/12/14 07:33:25;;;;;;;15.18;7.43;;;;;;;0.70;74.79;93808.28;2064967;69;20156;-70
2021/12/14 07:36:11;;;;;;;12.50;6.85;;;;;;;0.73;75.23;93810.78;2064952;69;20141;-71
2021/12/14 07:38:59;;;;;;;16.17;8.07;;;;;;;0.68;75.50;93814.34;2065016;69;20168;-74
2021/12/14 07:41:30;;;;;;;14.73;8.07;;;;;;;0.64;76.04;93815.91;2064757;69;20160;-75
2021/12/14 07:43:58;;;;;;;17.00;10.63;;;;;;;0.77;75.85;93816.75;2064062;69;20574;-75
2021/12/14 07:46:33;;;;;;;14.90;9.07;;;;;;;0.84;76.03;93818.22;2062677;69;20276;-75
2021/12/14 07:49:21;;;;;;;15.15;8.95;;;;;;;1.05;75.20;93823.28;2061590;69;20224;-74
2021/12/14 07:51:50;;;;;;;14.00;8.45;;;;;;;1.13;75.26;93822.16;2061644;69;20153;-68
2021/12/14 07:54:30;;;;;;;14.98;8.52;;;;;;;1.25;75.14;93820.03;2064326;69;20160;-68
2021/12/14 07:57:18;;;;;;;12.20;7.47;;;;;;;1.37;74.93;93826.16;2064941;69;20144;-73
2021/12/14 08:00:12;;;;;;;14.77;7.93;;;;;;;1.40;75.26;93823.09;2064992;69;20584;-74
2021/12/14 08:02:48;;;;;;;12.32;7.50;;;;;;;1.31;75.69;93820.69;2063954;69;20152;-74
2021/12/14 08:05:19;;;;;;;17.25;9.50;;;;;;;1.11;75.75;93819.19;2070519;69;20152;-72
2021/12/14 08:07:56;;;;;;;14.73;8.75;;;;;;;1.37;74.56;93820.63;2071586;69;20175;-74
2021/12/14 08:10:27;;;;;;;13.60;8.18;;;;;;;1.34;74.59;93816.13;2071604;69;20148;-72
2021/12/14 08:13:16;;;;;;;13.15;7.68;;;;;;;1.50;75.35;93826.25;2071731;69;20664;-72
2021/12/14 08:15:49;;;;;;;10.30;7.18;;;;;;;1.68;74.67;93825.50;2071018;69;20759;-72
2021/12/14 08:18:18;;;;;;;11.25;7.03;;;;;;;1.76;75.13;93826.41;2069635;69;20140;-73
2021/12/14 08:20:53;;;;;;;12.90;7.90;;;;;;;1.72;74.64;93823.19;2068013;69;20137;-71
2021/12/14 08:23:18;;;;;;;16.25;9.98;;;;;;;1.51;75.68;93822.19;2070703;69;20251;-74
2021/12/14 08:25:44;;;;;;;16.23;9.77;;;;;;;1.60;75.24;93821.81;2071531;69;20235;-76
2021/12/14 08:28:11;;;;;;;18.15;10.48;;;;;;;1.66;74.39;93819.00;2071560;69;20187;-76
2021/12/14 08:30:40;;;;;;;22.23;11.77;;;;;;;1.73;75.11;93823.94;2071550;69;20144;-70
2021/12/14 08:33:18;;;;;;;15.25;9.27;;;;;;;1.80;75.22;93831.66;2068037;69;20172;-72
2021/12/14 08:35:44;;;;;;;15.10;9.25;;;;;;;1.83;75.24;93830.59;2071230;69;20137;-73
2021/12/14 08:38:09;;;;;;;16.60;9.43;;;;;;;1.85;74.68;93830.09;2070523;69;20197;-72
2021/12/14 08:40:43;;;;;;;15.35;9.77;;;;;;;1.62;74.92;93824.09;2070542;69;20202;-74
2021/12/14 08:43:14;;;;;;;21.58;12.35;;;;;;;1.70;75.04;93825.00;2071294;69;20184;-75
2021/12/14 08:45:45;;;;;;;18.65;11.10;;;;;;;1.76;74.68;93814.56;2071227;69;20634;-73
2021/12/14 08:48:32;;;;;;;21.17;11.93;;;;;;;1.80;75.60;93822.59;2071117;69;20132;-75
2021/12/14 08:51:04;;;;;;;20.70;12.70;;;;;;;2.07;74.52;93826.97;2067818;69;20152;-75
2021/12/14 08:53:34;;;;;;;22.42;11.88;;;;;;;2.11;73.11;93821.88;2068682;69;20603;-73
2021/12/14 08:56:06;;;;;;;19.95;11.15;;;;;;;2.15;74.54;93825.06;2071245;69;20625;-71
2021/12/14 08:58:32;;;;;;;21.75;11.45;;;;;;;2.38;73.98;93827.50;2071311;69;20228;-69
2021/12/14 09:01:08;;;;;;;18.67;10.90;;;;;;;2.39;74.99;93832.53;2068120;69;20231;-73
2021/12/14 09:03:40;;;;;;;19.35;12.48;;;;;;;2.57;75.01;93833.75;2068393;69;20235;-70
2021/12/14 09:06:16;;;;;;;18.35;11.82;;;;;;;2.85;73.40;93840.88;2071963;69;20229;-74
2021/12/14 09:08:44;;;;;;;21.67;12.48;;;;;;;3.11;73.58;93832.50;2068769;69;20168;-75
2021/12/14 09:11:11;;;;;;;23.90;13.32;;;;;;;3.20;73.93;93831.34;2072175;69;20195;-75
2021/12/14 09:13:38;;;;;;;28.77;14.77;;;;;;;3.40;73.69;93836.28;2072145;69;20221;-73
2021/12/14 09:16:09;;;;;;;26.02;15.07;;;;;;;3.56;74.72;93846.31;2071945;69;20156;-72
2021/12/14 09:18:41;;;;;;;27.80;17.58;;;;;;;3.41;73.09;93842.59;2071996;69;20148;-76
2021/12/14 09:21:23;;;;;;;28.53;17.43;;;;;;;3.85;72.99;93838.13;2071901;69;20307;-74
2021/12/14 09:23:55;;;;;;;31.02;19.23;;;;;;;3.96;72.59;93837.88;2071574;69;20279;-76
2021/12/14 09:26:24;;;;;;;29.05;18.50;;;;;;;4.15;72.30;93839.72;2071958;69;20155;-76
2021/12/14 09:28:50;;;;;;;33.47;18.52;;;;;;;4.46;71.78;93835.97;2071941;69;20171;-74
2021/12/14 09:31:23;;;;;;;32.92;18.50;;;;;;;4.49;70.99;93845.25;2071931;69;20167;-74
2021/12/14 09:33:54;;;;;;;29.92;19.60;;;;;;;4.51;71.31;93843.44;2070669;69;20172;-70
2021/12/14 09:36:20;;;;;;;35.13;19.10;;;;;;;4.84;71.17;93835.53;2068441;69;20520;-71
2021/12/14 09:38:51;;;;;;;35.25;20.60;;;;;;;4.91;70.85;93836.91;2068611;69;20165;-72
2021/12/14 09:41:21;;;;;;;29.42;17.83;;;;;;;5.02;70.21;93836.59;2068581;69;20145;-71
2021/12/14 09:43:48;;;;;;;32.25;18.63;;;;;;;5.15;70.58;93830.91;2069036;69;20191;-76
2021/12/14 09:46:17;;;;;;;26.67;15.20;;;;;;;5.41;69.84;93829.22;2070167;69;20144;-74
2021/12/14 09:48:49;;;;;;;24.55;14.98;;;;;;;5.50;70.14;93820.34;2071675;69;20321;-71
2021/12/14 09:51:23;;;;;;;28.33;15.25;;;;;;;5.83;69.60;93821.41;2071769;69;20664;-74
2021/12/14 09:53:52;;;;;;;31.08;15.60;;;;;;;6.15;69.15;93817.44;2071821;69;20144;-72
2021/12/14 09:56:21;;;;;;;25.25;15.25;;;;;;;6.44;67.28;93806.84;2071400;69;20148;-74
2021/12/14 09:58:58;;;;;;;25.02;14.30;;;;;;;6.31;67.78;93804.97;2068466;69;20163;-70
2021/12/14 10:01:30;;;;;;;22.42;12.90;;;;;;;6.03;67.69;93803.78;2071171;69;20144;-74
2021/12/14 10:04:00;;;;;;;22.38;13.52;;;;;;;6.70;66.63;93805.78;2071687;69;20152;-71
2021/12/14 10:06:30;;;;;;;24.58;14.63;;;;;;;6.68;66.53;93805.56;2071729;69;20144;-73
2021/12/14 10:09:03;;;;;;;23.40;13.90;;;;;;;6.67;65.58;93804.09;2071734;69;20596;-73
2021/12/14 10:14:40;;;;;;;18.10;11.57;;;;;;;7.58;63.88;93795.56;2071741;69;20213;-73
2021/12/14 10:17:09;;;;;;;15.55;10.77;;;;;;;8.16;62.92;93787.28;2071783;69;20225;-71
2021/12/14 10:19:37;;;;;;;34.67;19.52;;;;;;;8.60;62.01;93784.78;2071648;69;20143;-72
2021/12/14 10:22:23;;;;;;;22.83;13.45;;;;;;;8.98;60.64;93772.50;2071576;69;20147;-73
2021/12/14 10:24:53;;;;;;;13.27;8.30;;;;;;;9.01;59.83;93762.19;2071696;69;20588;-72
2021/12/14 10:27:21;;;;;;;14.65;8.90;;;;;;;9.13;58.98;93766.75;2071605;69;20224;-71
2021/12/14 10:29:48;;;;;;;16.35;9.00;;;;;;;9.42;57.89;93757.84;2071525;69;20608;-69
2021/12/14 10:32:19;;;;;;;13.48;8.68;;;;;;;10.55;56.56;93754.19;2068272;69;20217;-71
2021/12/14 10:34:53;;;;;;;13.73;8.02;;;;;;;10.68;56.25;93738.97;2071645;69;20147;-69
2021/12/14 10:37:57;;;;;;;12.23;7.53;;;;;;;10.37;54.38;93739.41;2071627;69;20157;-70
2021/12/14 10:43:22;;;;;;;11.95;9.63;;;;;;;11.27;51.82;93725.75;2071800;69;20223;-73
2021/12/14 10:45:56;;;;;;;11.27;8.10;;;;;;;11.76;51.78;93730.09;2071882;69;20669;-74
2021/12/14 10:48:27;;;;;;;9.60;6.43;;;;;;;12.74;49.11;93725.72;2071812;69;20148;-74
2021/12/14 10:50:55;;;;;;;10.32;8.73;;;;;;;11.75;47.76;93734.25;2071781;69;20195;-73
2021/12/14 10:53:21;;;;;;;8.77;6.10;;;;;;;12.52;47.72;93727.00;2071014;69;20151;-72
2021/12/14 10:55:59;;;;;;;10.05;6.93;;;;;;;13.47;47.41;93727.13;2071430;69;20560;-74
2021/12/14 10:58:28;;;;;;;7.28;5.70;;;;;;;15.37;44.92;93722.75;2071766;69;20144;-72
2021/12/14 11:01:27;;;;;;;5.40;4.40;;;;;;;16.16;40.08;93728.72;2071798;69;20148;-75
2021/12/14 11:03:57;;;;;;;6.40;4.57;;;;;;;14.60;40.89;93730.13;2054227;69;20166;-72
2021/12/14 11:06:29;;;;;;;6.30;5.15;;;;;;;13.32;42.34;93719.78;2054193;69;20146;-75
2021/12/14 11:11:49;;;;;;;10.82;6.70;;;;;;;12.03;45.13;93715.09;2053240;70;20204;-73
2021/12/14 11:14:19;;;;;;;9.55;7.65;;;;;;;10.62;46.55;93704.69;2053317;69;20268;-73
2021/12/14 11:19:46;;;;;;;11.93;8.48;;;;;;;9.98;48.65;93684.97;2050355;70;20159;-72
2021/12/14 11:22:23;;;;;;;27.52;15.73;;;;;;;9.55;49.03;93681.59;2052910;69;20256;-72
2021/12/14 11:25:02;;;;;;;30.52;14.20;;;;;;;9.30;50.24;93678.91;2054201;69;20145;-75
2021/12/14 11:27:38;;;;;;;23.77;13.55;;;;;;;9.22;50.56;93669.09;2051480;70;20154;-74
2021/12/14 11:30:17;;;;;;;33.75;18.67;;;;;;;8.78;51.49;93662.03;2054211;70;20646;-72
2021/12/14 11:32:48;;;;;;;22.30;14.63;;;;;;;9.13;51.71;93657.19;2054216;69;20153;-73
2021/12/14 11:35:25;;;;;;;43.05;18.70;;;;;;;8.79;52.67;93648.75;2054223;70;20161;-72
2021/12/14 11:37:51;;;;;;;36.60;18.27;;;;;;;8.55;52.38;93651.03;2054196;69;20523;-73
2021/12/14 11:40:21;;;;;;;71.15;41.50;;;;;;;8.03;52.15;93641.72;2063378;69;20227;-75
2021/12/14 11:42:46;;;;;;;78.30;44.72;;;;;;;7.93;52.82;93643.66;2071831;69;20323;-76
2021/12/14 11:45:19;;;;;;;44.80;24.92;;;;;;;7.90;55.84;93631.50;2071248;69;20144;-73
2021/12/14 11:47:50;;;;;;;48.58;27.63;;;;;;;7.75;55.59;93635.16;2071593;69;20178;-75
2021/12/14 11:50:24;;;;;;;27.23;17.00;;;;;;;7.49;53.98;93622.41;2071507;69;20193;-76
2021/12/14 11:53:05;;;;;;;35.63;22.25;;;;;;;6.97;55.35;93627.72;2071639;69;20167;-74
2021/12/14 11:55:44;;;;;;;34.85;21.75;;;;;;;7.23;56.55;93631.31;2071575;69;20175;-75
2021/12/14 11:58:31;;;;;;;36.30;21.35;;;;;;;7.92;55.30;93628.13;2071590;69;20175;-72
2021/12/14 12:01:08;;;;;;;33.42;20.73;;;;;;;7.97;55.49;93619.50;2071559;69;20172;-72
2021/12/14 12:03:43;;;;;;;31.85;19.48;;;;;;;8.02;55.31;93615.00;2071559;69;20167;-73
2021/12/14 12:11:55;;;;;;;29.30;17.67;;;;;;;8.05;56.80;93619.44;2071656;69;20152;-72
2021/12/14 12:14:30;;;;;;;21.88;13.63;;;;;;;8.10;56.30;93610.03;2068234;69;20243;-71
2021/12/14 12:17:27;;;;;;;24.33;13.18;;;;;;;8.32;55.73;93611.19;2071524;69;20578;-70
2021/12/14 12:20:05;;;;;;;15.50;9.45;;;;;;;8.26;54.88;93605.06;2070097;69;20155;-70
2021/12/14 12:22:38;;;;;;;24.63;14.77;;;;;;;8.11;55.76;93601.06;2071488;69;20213;-73
2021/12/14 12:25:14;;;;;;;19.38;12.80;;;;;;;7.26;57.65;93591.72;2071442;69;20623;-73
2021/12/14 12:27:47;;;;;;;23.92;13.27;;;;;;;7.37;58.10;93590.53;2071427;69;20656;-71
2021/12/14 12:30:35;;;;;;;23.02;15.10;;;;;;;7.57;57.81;93594.38;2071394;69;20128;-69
2021/12/14 12:33:27;;;;;;;25.35;16.02;;;;;;;7.59;58.17;93594.53;2071553;69;20231;-74
2021/12/14 12:36:05;;;;;;;28.90;17.70;;;;;;;7.24;58.28;93597.16;2071794;69;20231;-68
2021/12/14 12:38:34;;;;;;;27.70;17.88;;;;;;;7.24;59.00;93599.19;2072047;69;20260;-70
2021/12/14 12:41:25;;;;;;;26.52;17.52;;;;;;;7.78;58.45;93599.63;2071866;69;20531;-68
2021/12/14 12:44:12;;;;;;;32.92;20.17;;;;;;;7.93;57.92;93605.16;2071925;69;20581;-69
2021/12/14 12:46:49;;;;;;;34.35;20.77;;;;;;;7.96;57.89;93601.19;2071921;69;20176;-69
2021/12/14 12:49:23;;;;;;;23.27;15.27;;;;;;;8.21;57.55;93587.16;2072100;69;20132;-69
2021/12/14 12:51:55;;;;;;;27.90;16.83;;;;;;;8.01;56.79;93588.25;2071856;69;20577;-75